sensor_id;sensor_type;location;lat;lon;timestamp;P1;durP1;ratioP1;P2;durP2;ratioP2
66437;SDS011;54537;47.972;11.662;2022-07-05T00:00:41;7.60;;;3.58;;
66437;SDS011;54537;47.972;11.662;2022-07-05T00:03:08;6.60;;;3.50;;
66437;SDS011;54537;47.972;11.662;2022-07-05T00:05:34;7.75;;;3.42;;
66437;SDS011;54537;47.972;11.662;2022-07-05T00:08:02;6.63;;;3.65;;
66437;SDS011;54537;47.972;11.662;2022-07-05T00:10:30;6.03;;;2.95;;
66437;SDS011;54537;47.972;11.662;2022-07-05T00:12:56;8.40;;;3.50;;
66437;SDS011;54537;47.972;11.662;2022-07-05T00:15:23;6.93;;;3.00;;
66437;SDS011;54537;47.972;11.662;2022-07-05T00:17:49;7.50;;;2.92;;
66437;SDS011;54537;47.972;11.662;2022-07-05T00:20:16;5.30;;;2.90;;
66437;SDS011;54537;47.972;11.662;2022-07-05T00:22:42;6.10;;;3.10;;
66437;SDS011;54537;47.972;11.662;2022-07-05T00:25:09;7.00;;;2.95;;
66437;SDS011;54537;47.972;11.662;2022-07-05T00:27:37;7.22;;;3.15;;
66437;SDS011;54537;47.972;11.662;2022-07-05T00:30:04;5.82;;;3.00;;
66437;SDS011;54537;47.972;11.662;2022-07-05T00:32:31;7.10;;;3.25;;
66437;SDS011;54537;47.972;11.662;2022-07-05T00:34:57;5.75;;;3.20;;
66437;SDS011;54537;47.972;11.662;2022-07-05T00:37:24;5.93;;;2.78;;
66437;SDS011;54537;47.972;11.662;2022-07-05T00:39:50;6.45;;;2.90;;
66437;SDS011;54537;47.972;11.662;2022-07-05T00:42:17;7.25;;;2.70;;
66437;SDS011;54537;47.972;11.662;2022-07-05T00:44:45;7.25;;;2.35;;
66437;SDS011;54537;47.972;11.662;2022-07-05T00:47:12;6.25;;;2.58;;
66437;SDS011;54537;47.972;11.662;2022-07-05T00:49:39;3.88;;;2.20;;
66437;SDS011;54537;47.972;11.662;2022-07-05T00:52:07;4.55;;;2.38;;
66437;SDS011;54537;47.972;11.662;2022-07-05T00:54:34;3.20;;;2.00;;
66437;SDS011;54537;47.972;11.662;2022-07-05T00:57:02;4.72;;;2.10;;
66437;SDS011;54537;47.972;11.662;2022-07-05T00:59:29;4.30;;;2.10;;
66437;SDS011;54537;47.972;11.662;2022-07-05T01:01:58;6.75;;;2.33;;
66437;SDS011;54537;47.972;11.662;2022-07-05T01:04:25;3.60;;;1.73;;
66437;SDS011;54537;47.972;11.662;2022-07-05T01:06:52;3.67;;;1.92;;
66437;SDS011;54537;47.972;11.662;2022-07-05T01:09:20;3.25;;;1.77;;
66437;SDS011;54537;47.972;11.662;2022-07-05T01:11:48;5.15;;;1.90;;
66437;SDS011;54537;47.972;11.662;2022-07-05T01:14:16;4.53;;;1.80;;
66437;SDS011;54537;47.972;11.662;2022-07-05T01:16:43;3.83;;;1.75;;
66437;SDS011;54537;47.972;11.662;2022-07-05T01:19:11;3.30;;;1.77;;
66437;SDS011;54537;47.972;11.662;2022-07-05T01:21:39;4.07;;;1.88;;
66437;SDS011;54537;47.972;11.662;2022-07-05T01:24:09;4.07;;;2.38;;
66437;SDS011;54537;47.972;11.662;2022-07-05T01:26:36;6.53;;;2.22;;
66437;SDS011;54537;47.972;11.662;2022-07-05T01:29:03;5.88;;;2.50;;
66437;SDS011;54537;47.972;11.662;2022-07-05T01:31:29;4.82;;;2.00;;
66437;SDS011;54537;47.972;11.662;2022-07-05T01:33:56;5.32;;;2.40;;
66437;SDS011;54537;47.972;11.662;2022-07-05T01:36:22;4.13;;;2.17;;
66437;SDS011;54537;47.972;11.662;2022-07-05T01:38:49;4.95;;;2.50;;
66437;SDS011;54537;47.972;11.662;2022-07-05T01:41:17;5.78;;;2.63;;
66437;SDS011;54537;47.972;11.662;2022-07-05T01:43:44;5.63;;;2.88;;
66437;SDS011;54537;47.972;11.662;2022-07-05T01:46:10;6.90;;;3.13;;
66437;SDS011;54537;47.972;11.662;2022-07-05T01:48:38;5.82;;;3.38;;
66437;SDS011;54537;47.972;11.662;2022-07-05T01:51:06;5.45;;;3.05;;
66437;SDS011;54537;47.972;11.662;2022-07-05T01:53:35;5.32;;;3.08;;
66437;SDS011;54537;47.972;11.662;2022-07-05T01:56:02;7.28;;;3.72;;
66437;SDS011;54537;47.972;11.662;2022-07-05T01:58:31;7.30;;;3.80;;
66437;SDS011;54537;47.972;11.662;2022-07-05T02:00:58;6.68;;;3.67;;
66437;SDS011;54537;47.972;11.662;2022-07-05T02:03:25;8.48;;;4.07;;
66437;SDS011;54537;47.972;11.662;2022-07-05T02:05:52;5.72;;;3.30;;
66437;SDS011;54537;47.972;11.662;2022-07-05T02:08:19;6.20;;;3.67;;
66437;SDS011;54537;47.972;11.662;2022-07-05T02:10:46;9.05;;;3.92;;
66437;SDS011;54537;47.972;11.662;2022-07-05T02:13:13;7.15;;;3.50;;
66437;SDS011;54537;47.972;11.662;2022-07-05T02:15:41;5.50;;;3.20;;
66437;SDS011;54537;47.972;11.662;2022-07-05T02:18:08;8.05;;;3.78;;
66437;SDS011;54537;47.972;11.662;2022-07-05T02:20:35;7.53;;;3.42;;
66437;SDS011;54537;47.972;11.662;2022-07-05T02:23:04;9.23;;;3.47;;
66437;SDS011;54537;47.972;11.662;2022-07-05T02:25:30;6.00;;;3.30;;
66437;SDS011;54537;47.972;11.662;2022-07-05T02:27:57;6.80;;;2.90;;
66437;SDS011;54537;47.972;11.662;2022-07-05T02:30:23;5.40;;;2.80;;
66437;SDS011;54537;47.972;11.662;2022-07-05T02:32:51;6.47;;;2.63;;
66437;SDS011;54537;47.972;11.662;2022-07-05T02:35:18;6.50;;;2.72;;
66437;SDS011;54537;47.972;11.662;2022-07-05T02:37:44;4.97;;;2.50;;
66437;SDS011;54537;47.972;11.662;2022-07-05T02:40:12;3.42;;;2.30;;
66437;SDS011;54537;47.972;11.662;2022-07-05T02:42:39;6.53;;;2.58;;
66437;SDS011;54537;47.972;11.662;2022-07-05T02:45:06;4.50;;;2.47;;
66437;SDS011;54537;47.972;11.662;2022-07-05T02:47:33;5.43;;;2.63;;
66437;SDS011;54537;47.972;11.662;2022-07-05T02:50:04;5.05;;;2.00;;
66437;SDS011;54537;47.972;11.662;2022-07-05T02:52:31;4.57;;;2.15;;
66437;SDS011;54537;47.972;11.662;2022-07-05T02:54:57;6.40;;;2.17;;
66437;SDS011;54537;47.972;11.662;2022-07-05T02:57:23;3.95;;;2.05;;
66437;SDS011;54537;47.972;11.662;2022-07-05T02:59:52;4.25;;;2.03;;
66437;SDS011;54537;47.972;11.662;2022-07-05T03:02:18;5.85;;;2.40;;
66437;SDS011;54537;47.972;11.662;2022-07-05T03:04:45;3.95;;;2.03;;
66437;SDS011;54537;47.972;11.662;2022-07-05T03:07:12;5.03;;;2.30;;
66437;SDS011;54537;47.972;11.662;2022-07-05T03:09:39;4.82;;;2.05;;
66437;SDS011;54537;47.972;11.662;2022-07-05T03:12:06;6.03;;;2.50;;
66437;SDS011;54537;47.972;11.662;2022-07-05T03:14:33;6.45;;;2.38;;
66437;SDS011;54537;47.972;11.662;2022-07-05T03:16:59;4.55;;;2.05;;
66437;SDS011;54537;47.972;11.662;2022-07-05T03:19:26;5.57;;;2.50;;
66437;SDS011;54537;47.972;11.662;2022-07-05T03:21:53;8.27;;;2.55;;
66437;SDS011;54537;47.972;11.662;2022-07-05T03:24:22;5.85;;;2.25;;
66437;SDS011;54537;47.972;11.662;2022-07-05T03:26:48;4.68;;;2.47;;
66437;SDS011;54537;47.972;11.662;2022-07-05T03:29:15;5.63;;;2.38;;
66437;SDS011;54537;47.972;11.662;2022-07-05T03:31:41;5.13;;;2.22;;
66437;SDS011;54537;47.972;11.662;2022-07-05T03:34:08;5.82;;;2.28;;
66437;SDS011;54537;47.972;11.662;2022-07-05T03:36:34;5.05;;;2.40;;
66437;SDS011;54537;47.972;11.662;2022-07-05T03:39:01;6.80;;;2.63;;
66437;SDS011;54537;47.972;11.662;2022-07-05T03:41:29;6.75;;;2.42;;
66437;SDS011;54537;47.972;11.662;2022-07-05T03:43:55;5.28;;;2.60;;
66437;SDS011;54537;47.972;11.662;2022-07-05T03:46:22;5.70;;;2.80;;
66437;SDS011;54537;47.972;11.662;2022-07-05T03:48:48;6.30;;;2.67;;
66437;SDS011;54537;47.972;11.662;2022-07-05T03:51:15;6.13;;;2.78;;
66437;SDS011;54537;47.972;11.662;2022-07-05T03:53:41;5.97;;;2.63;;
66437;SDS011;54537;47.972;11.662;2022-07-05T03:56:08;7.13;;;2.90;;
66437;SDS011;54537;47.972;11.662;2022-07-05T03:58:36;4.78;;;2.55;;
66437;SDS011;54537;47.972;11.662;2022-07-05T04:01:02;8.02;;;3.00;;
66437;SDS011;54537;47.972;11.662;2022-07-05T04:03:29;5.72;;;3.05;;
66437;SDS011;54537;47.972;11.662;2022-07-05T04:05:55;9.60;;;2.67;;
66437;SDS011;54537;47.972;11.662;2022-07-05T04:08:22;6.90;;;2.90;;
66437;SDS011;54537;47.972;11.662;2022-07-05T04:10:48;6.93;;;2.80;;
66437;SDS011;54537;47.972;11.662;2022-07-05T04:13:15;5.22;;;2.65;;
66437;SDS011;54537;47.972;11.662;2022-07-05T04:15:43;4.32;;;2.28;;
66437;SDS011;54537;47.972;11.662;2022-07-05T04:18:09;5.13;;;2.38;;
66437;SDS011;54537;47.972;11.662;2022-07-05T04:20:35;3.90;;;1.80;;
66437;SDS011;54537;47.972;11.662;2022-07-05T04:23:02;6.07;;;2.05;;
66437;SDS011;54537;47.972;11.662;2022-07-05T04:25:29;4.75;;;2.40;;
66437;SDS011;54537;47.972;11.662;2022-07-05T04:27:56;3.80;;;2.25;;
66437;SDS011;54537;47.972;11.662;2022-07-05T04:30:23;4.85;;;2.10;;
66437;SDS011;54537;47.972;11.662;2022-07-05T04:32:52;3.30;;;1.83;;
66437;SDS011;54537;47.972;11.662;2022-07-05T04:35:19;3.88;;;1.83;;
66437;SDS011;54537;47.972;11.662;2022-07-05T04:37:45;3.85;;;1.73;;
66437;SDS011;54537;47.972;11.662;2022-07-05T04:40:12;4.30;;;1.70;;
66437;SDS011;54537;47.972;11.662;2022-07-05T04:42:39;2.95;;;1.77;;
66437;SDS011;54537;47.972;11.662;2022-07-05T04:45:06;4.78;;;1.77;;
66437;SDS011;54537;47.972;11.662;2022-07-05T04:47:33;4.60;;;1.92;;
66437;SDS011;54537;47.972;11.662;2022-07-05T04:50:01;3.47;;;1.80;;
66437;SDS011;54537;47.972;11.662;2022-07-05T04:52:29;8.70;;;1.80;;
66437;SDS011;54537;47.972;11.662;2022-07-05T04:54:56;2.47;;;1.70;;
66437;SDS011;54537;47.972;11.662;2022-07-05T04:57:22;4.88;;;1.42;;
66437;SDS011;54537;47.972;11.662;2022-07-05T04:59:49;2.95;;;1.42;;
66437;SDS011;54537;47.972;11.662;2022-07-05T05:02:15;4.15;;;1.40;;
66437;SDS011;54537;47.972;11.662;2022-07-05T05:04:42;2.22;;;1.42;;
66437;SDS011;54537;47.972;11.662;2022-07-05T05:07:10;4.10;;;1.73;;
66437;SDS011;54537;47.972;11.662;2022-07-05T05:09:39;4.45;;;1.52;;
66437;SDS011;54537;47.972;11.662;2022-07-05T05:12:05;5.43;;;1.30;;
66437;SDS011;54537;47.972;11.662;2022-07-05T05:14:32;3.60;;;1.60;;
66437;SDS011;54537;47.972;11.662;2022-07-05T05:16:59;2.70;;;1.50;;
66437;SDS011;54537;47.972;11.662;2022-07-05T05:19:25;6.40;;;1.55;;
66437;SDS011;54537;47.972;11.662;2022-07-05T05:21:51;2.55;;;1.40;;
66437;SDS011;54537;47.972;11.662;2022-07-05T05:24:19;4.10;;;1.60;;
66437;SDS011;54537;47.972;11.662;2022-07-05T05:26:46;9.43;;;1.58;;
66437;SDS011;54537;47.972;11.662;2022-07-05T05:29:14;3.58;;;1.50;;
66437;SDS011;54537;47.972;11.662;2022-07-05T05:31:40;3.10;;;1.23;;
66437;SDS011;54537;47.972;11.662;2022-07-05T05:34:07;3.33;;;1.60;;
66437;SDS011;54537;47.972;11.662;2022-07-05T05:36:33;3.25;;;1.52;;
66437;SDS011;54537;47.972;11.662;2022-07-05T05:39:00;2.70;;;1.40;;
66437;SDS011;54537;47.972;11.662;2022-07-05T05:41:28;4.57;;;1.55;;
66437;SDS011;54537;47.972;11.662;2022-07-05T05:43:54;3.75;;;1.40;;
66437;SDS011;54537;47.972;11.662;2022-07-05T05:46:21;1.88;;;1.33;;
66437;SDS011;54537;47.972;11.662;2022-07-05T05:48:47;4.28;;;1.55;;
66437;SDS011;54537;47.972;11.662;2022-07-05T05:51:14;2.92;;;1.38;;
66437;SDS011;54537;47.972;11.662;2022-07-05T05:53:40;2.95;;;1.33;;
66437;SDS011;54537;47.972;11.662;2022-07-05T05:56:07;2.80;;;1.45;;
66437;SDS011;54537;47.972;11.662;2022-07-05T05:58:35;2.40;;;1.40;;
66437;SDS011;54537;47.972;11.662;2022-07-05T06:01:01;4.32;;;1.30;;
66437;SDS011;54537;47.972;11.662;2022-07-05T06:03:28;2.90;;;1.40;;
66437;SDS011;54537;47.972;11.662;2022-07-05T06:05:55;8.85;;;1.40;;
66437;SDS011;54537;47.972;11.662;2022-07-05T06:08:21;2.28;;;1.10;;
66437;SDS011;54537;47.972;11.662;2022-07-05T06:10:48;2.47;;;1.40;;
66437;SDS011;54537;47.972;11.662;2022-07-05T06:13:15;4.68;;;1.23;;
66437;SDS011;54537;47.972;11.662;2022-07-05T06:15:43;2.28;;;1.40;;
66437;SDS011;54537;47.972;11.662;2022-07-05T06:18:09;3.13;;;1.58;;
66437;SDS011;54537;47.972;11.662;2022-07-05T06:20:37;4.05;;;1.20;;
66437;SDS011;54537;47.972;11.662;2022-07-05T06:23:05;2.40;;;1.40;;
66437;SDS011;54537;47.972;11.662;2022-07-05T06:25:32;2.95;;;1.23;;
66437;SDS011;54537;47.972;11.662;2022-07-05T06:27:59;3.15;;;1.33;;
66437;SDS011;54537;47.972;11.662;2022-07-05T06:30:27;3.88;;;1.23;;
66437;SDS011;54537;47.972;11.662;2022-07-05T06:32:57;4.20;;;1.48;;
66437;SDS011;54537;47.972;11.662;2022-07-05T06:35:24;3.20;;;1.42;;
66437;SDS011;54537;47.972;11.662;2022-07-05T06:37:51;2.47;;;1.60;;
66437;SDS011;54537;47.972;11.662;2022-07-05T06:40:20;5.07;;;2.13;;
66437;SDS011;54537;47.972;11.662;2022-07-05T06:42:47;5.28;;;2.00;;
66437;SDS011;54537;47.972;11.662;2022-07-05T06:45:14;5.25;;;1.73;;
66437;SDS011;54537;47.972;11.662;2022-07-05T06:47:41;6.22;;;2.50;;
66437;SDS011;54537;47.972;11.662;2022-07-05T06:50:09;3.85;;;2.15;;
66437;SDS011;54537;47.972;11.662;2022-07-05T06:52:36;4.65;;;2.15;;
66437;SDS011;54537;47.972;11.662;2022-07-05T06:55:04;3.53;;;2.20;;
66437;SDS011;54537;47.972;11.662;2022-07-05T06:57:31;4.75;;;2.03;;
66437;SDS011;54537;47.972;11.662;2022-07-05T06:59:58;5.90;;;2.13;;
66437;SDS011;54537;47.972;11.662;2022-07-05T07:02:25;3.58;;;1.90;;
66437;SDS011;54537;47.972;11.662;2022-07-05T07:04:51;4.55;;;2.00;;
66437;SDS011;54537;47.972;11.662;2022-07-05T07:07:19;3.88;;;2.20;;
66437;SDS011;54537;47.972;11.662;2022-07-05T07:10:03;4.68;;;2.17;;
66437;SDS011;54537;47.972;11.662;2022-07-05T07:12:30;4.28;;;2.08;;
66437;SDS011;54537;47.972;11.662;2022-07-05T07:14:57;4.05;;;2.50;;
66437;SDS011;54537;47.972;11.662;2022-07-05T07:17:23;4.53;;;2.50;;
66437;SDS011;54537;47.972;11.662;2022-07-05T07:19:50;4.60;;;2.45;;
66437;SDS011;54537;47.972;11.662;2022-07-05T07:22:17;4.47;;;2.25;;
66437;SDS011;54537;47.972;11.662;2022-07-05T07:24:45;4.88;;;2.25;;
66437;SDS011;54537;47.972;11.662;2022-07-05T07:27:11;4.43;;;2.08;;
66437;SDS011;54537;47.972;11.662;2022-07-05T07:29:38;4.80;;;2.28;;
66437;SDS011;54537;47.972;11.662;2022-07-05T07:32:06;4.03;;;1.80;;
66437;SDS011;54537;47.972;11.662;2022-07-05T07:34:33;3.33;;;1.88;;
66437;SDS011;54537;47.972;11.662;2022-07-05T07:37:01;4.22;;;2.15;;
66437;SDS011;54537;47.972;11.662;2022-07-05T07:39:28;2.47;;;1.88;;
66437;SDS011;54537;47.972;11.662;2022-07-05T07:41:58;5.78;;;2.60;;
66437;SDS011;54537;47.972;11.662;2022-07-05T07:44:24;4.15;;;1.88;;
66437;SDS011;54537;47.972;11.662;2022-07-05T07:46:51;4.28;;;1.77;;
66437;SDS011;54537;47.972;11.662;2022-07-05T07:49:17;2.90;;;1.92;;
66437;SDS011;54537;47.972;11.662;2022-07-05T07:51:44;4.57;;;2.10;;
66437;SDS011;54537;47.972;11.662;2022-07-05T07:54:10;3.90;;;1.88;;
66437;SDS011;54537;47.972;11.662;2022-07-05T07:56:40;2.95;;;1.95;;
66437;SDS011;54537;47.972;11.662;2022-07-05T07:59:08;4.13;;;1.90;;
66437;SDS011;54537;47.972;11.662;2022-07-05T08:01:34;4.75;;;2.10;;
66437;SDS011;54537;47.972;11.662;2022-07-05T08:04:01;3.60;;;2.22;;
66437;SDS011;54537;47.972;11.662;2022-07-05T08:06:27;4.43;;;2.50;;
66437;SDS011;54537;47.972;11.662;2022-07-05T08:08:55;4.72;;;2.40;;
66437;SDS011;54537;47.972;11.662;2022-07-05T08:11:21;3.70;;;2.20;;
66437;SDS011;54537;47.972;11.662;2022-07-05T08:13:48;7.32;;;2.38;;
66437;SDS011;54537;47.972;11.662;2022-07-05T08:16:16;5.85;;;1.90;;
66437;SDS011;54537;47.972;11.662;2022-07-05T08:18:42;3.25;;;1.77;;
66437;SDS011;54537;47.972;11.662;2022-07-05T08:24:01;4.97;;;1.73;;
66437;SDS011;54537;47.972;11.662;2022-07-05T08:26:28;2.63;;;1.40;;
66437;SDS011;54537;47.972;11.662;2022-07-05T08:28:55;5.40;;;1.80;;
66437;SDS011;54537;47.972;11.662;2022-07-05T08:31:24;4.90;;;1.85;;
66437;SDS011;54537;47.972;11.662;2022-07-05T08:33:51;3.75;;;1.52;;
66437;SDS011;54537;47.972;11.662;2022-07-05T08:36:18;3.15;;;1.30;;
66437;SDS011;54537;47.972;11.662;2022-07-05T08:38:44;5.05;;;1.30;;
66437;SDS011;54537;47.972;11.662;2022-07-05T08:41:11;2.75;;;1.40;;
66437;SDS011;54537;47.972;11.662;2022-07-05T08:43:39;2.65;;;1.45;;
66437;SDS011;54537;47.972;11.662;2022-07-05T08:46:07;3.28;;;1.40;;
66437;SDS011;54537;47.972;11.662;2022-07-05T08:48:37;3.47;;;1.40;;
66437;SDS011;54537;47.972;11.662;2022-07-05T08:51:08;3.47;;;1.48;;
66437;SDS011;54537;47.972;11.662;2022-07-05T08:53:35;2.55;;;1.50;;
66437;SDS011;54537;47.972;11.662;2022-07-05T08:56:03;1.90;;;1.40;;
66437;SDS011;54537;47.972;11.662;2022-07-05T08:58:30;2.45;;;1.45;;
66437;SDS011;54537;47.972;11.662;2022-07-05T09:00:57;3.38;;;1.27;;
66437;SDS011;54537;47.972;11.662;2022-07-05T09:03:24;5.07;;;1.30;;
66437;SDS011;54537;47.972;11.662;2022-07-05T09:05:53;2.65;;;1.58;;
66437;SDS011;54537;47.972;11.662;2022-07-05T09:08:21;4.95;;;1.70;;
66437;SDS011;54537;47.972;11.662;2022-07-05T09:10:48;4.50;;;1.30;;
66437;SDS011;54537;47.972;11.662;2022-07-05T09:13:15;2.30;;;1.30;;
66437;SDS011;54537;47.972;11.662;2022-07-05T09:15:42;3.75;;;1.38;;
66437;SDS011;54537;47.972;11.662;2022-07-05T09:18:09;4.03;;;1.48;;
66437;SDS011;54537;47.972;11.662;2022-07-05T09:20:35;3.53;;;1.35;;
66437;SDS011;54537;47.972;11.662;2022-07-05T09:23:03;3.03;;;1.40;;
66437;SDS011;54537;47.972;11.662;2022-07-05T09:25:30;2.65;;;1.30;;
66437;SDS011;54537;47.972;11.662;2022-07-05T09:27:58;6.07;;;1.20;;
66437;SDS011;54537;47.972;11.662;2022-07-05T09:30:30;2.60;;;1.23;;
66437;SDS011;54537;47.972;11.662;2022-07-05T09:33:01;2.25;;;1.30;;
66437;SDS011;54537;47.972;11.662;2022-07-05T09:35:29;2.75;;;1.38;;
66437;SDS011;54537;47.972;11.662;2022-07-05T09:37:55;4.95;;;1.55;;
66437;SDS011;54537;47.972;11.662;2022-07-05T09:40:23;4.00;;;1.42;;
66437;SDS011;54537;47.972;11.662;2022-07-05T09:42:50;2.17;;;1.40;;
66437;SDS011;54537;47.972;11.662;2022-07-05T09:45:23;3.30;;;1.50;;
66437;SDS011;54537;47.972;11.662;2022-07-05T09:47:50;1.73;;;1.27;;
66437;SDS011;54537;47.972;11.662;2022-07-05T09:50:32;2.95;;;1.50;;
66437;SDS011;54537;47.972;11.662;2022-07-05T09:52:59;3.05;;;1.58;;
66437;SDS011;54537;47.972;11.662;2022-07-05T09:55:28;5.80;;;1.27;;
66437;SDS011;54537;47.972;11.662;2022-07-05T09:57:55;2.53;;;1.10;;
66437;SDS011;54537;47.972;11.662;2022-07-05T10:00:21;3.38;;;1.52;;
66437;SDS011;54537;47.972;11.662;2022-07-05T10:02:48;1.95;;;1.33;;
66437;SDS011;54537;47.972;11.662;2022-07-05T10:05:16;2.17;;;1.45;;
66437;SDS011;54537;47.972;11.662;2022-07-05T10:07:44;2.83;;;1.50;;
66437;SDS011;54537;47.972;11.662;2022-07-05T10:10:13;2.85;;;1.30;;
66437;SDS011;54537;47.972;11.662;2022-07-05T10:12:42;3.60;;;1.40;;
66437;SDS011;54537;47.972;11.662;2022-07-05T10:15:09;1.55;;;1.30;;
66437;SDS011;54537;47.972;11.662;2022-07-05T10:17:40;2.85;;;1.30;;
66437;SDS011;54537;47.972;11.662;2022-07-05T10:20:12;3.35;;;1.60;;
66437;SDS011;54537;47.972;11.662;2022-07-05T10:22:40;2.20;;;1.33;;
66437;SDS011;54537;47.972;11.662;2022-07-05T10:25:07;3.30;;;1.50;;
66437;SDS011;54537;47.972;11.662;2022-07-05T10:27:34;4.30;;;1.38;;
66437;SDS011;54537;47.972;11.662;2022-07-05T10:30:04;2.90;;;1.67;;
66437;SDS011;54537;47.972;11.662;2022-07-05T10:32:31;2.45;;;1.50;;
66437;SDS011;54537;47.972;11.662;2022-07-05T10:35:00;2.97;;;1.30;;
66437;SDS011;54537;47.972;11.662;2022-07-05T10:37:28;4.22;;;1.60;;
66437;SDS011;54537;47.972;11.662;2022-07-05T10:39:56;2.42;;;1.60;;
66437;SDS011;54537;47.972;11.662;2022-07-05T10:42:23;2.42;;;1.60;;
66437;SDS011;54537;47.972;11.662;2022-07-05T10:44:52;4.93;;;1.52;;
66437;SDS011;54537;47.972;11.662;2022-07-05T10:47:20;4.55;;;1.70;;
66437;SDS011;54537;47.972;11.662;2022-07-05T10:49:58;2.50;;;1.48;;
66437;SDS011;54537;47.972;11.662;2022-07-05T10:52:25;3.00;;;1.33;;
66437;SDS011;54537;47.972;11.662;2022-07-05T10:57:44;3.45;;;1.70;;
66437;SDS011;54537;47.972;11.662;2022-07-05T11:00:47;2.75;;;1.42;;
66437;SDS011;54537;47.972;11.662;2022-07-05T11:06:00;3.28;;;1.50;;
66437;SDS011;54537;47.972;11.662;2022-07-05T11:08:27;4.18;;;1.35;;
66437;SDS011;54537;47.972;11.662;2022-07-05T11:11:08;2.85;;;1.42;;
66437;SDS011;54537;47.972;11.662;2022-07-05T11:13:36;2.88;;;1.40;;
66437;SDS011;54537;47.972;11.662;2022-07-05T11:16:21;2.03;;;1.23;;
66437;SDS011;54537;47.972;11.662;2022-07-05T11:18:50;3.28;;;1.20;;
66437;SDS011;54537;47.972;11.662;2022-07-05T11:21:18;2.65;;;1.70;;
66437;SDS011;54537;47.972;11.662;2022-07-05T11:23:45;3.83;;;1.50;;
66437;SDS011;54537;47.972;11.662;2022-07-05T11:26:11;2.30;;;1.30;;
66437;SDS011;54537;47.972;11.662;2022-07-05T11:28:42;2.30;;;1.30;;
66437;SDS011;54537;47.972;11.662;2022-07-05T11:31:09;3.10;;;1.67;;
66437;SDS011;54537;47.972;11.662;2022-07-05T11:33:39;3.72;;;1.48;;
66437;SDS011;54537;47.972;11.662;2022-07-05T11:36:23;3.20;;;1.55;;
66437;SDS011;54537;47.972;11.662;2022-07-05T11:39:07;3.85;;;1.58;;
66437;SDS011;54537;47.972;11.662;2022-07-05T11:41:41;4.00;;;1.80;;
66437;SDS011;54537;47.972;11.662;2022-07-05T11:44:09;3.15;;;1.80;;
66437;SDS011;54537;47.972;11.662;2022-07-05T11:46:36;5.63;;;1.60;;
66437;SDS011;54537;47.972;11.662;2022-07-05T11:49:03;6.95;;;1.83;;
66437;SDS011;54537;47.972;11.662;2022-07-05T11:51:31;3.40;;;2.03;;
66437;SDS011;54537;47.972;11.662;2022-07-05T11:53:57;4.60;;;1.98;;
66437;SDS011;54537;47.972;11.662;2022-07-05T11:56:26;4.90;;;2.00;;
66437;SDS011;54537;47.972;11.662;2022-07-05T11:58:53;3.65;;;1.85;;
66437;SDS011;54537;47.972;11.662;2022-07-05T12:01:20;5.05;;;2.00;;
66437;SDS011;54537;47.972;11.662;2022-07-05T12:03:53;6.15;;;1.98;;
66437;SDS011;54537;47.972;11.662;2022-07-05T12:06:20;3.83;;;1.98;;
66437;SDS011;54537;47.972;11.662;2022-07-05T12:09:02;3.83;;;1.80;;
66437;SDS011;54537;47.972;11.662;2022-07-05T12:11:29;3.80;;;2.00;;
66437;SDS011;54537;47.972;11.662;2022-07-05T12:14:19;4.05;;;2.00;;
66437;SDS011;54537;47.972;11.662;2022-07-05T12:16:46;2.92;;;1.75;;
66437;SDS011;54537;47.972;11.662;2022-07-05T12:19:12;5.13;;;2.00;;
66437;SDS011;54537;47.972;11.662;2022-07-05T12:21:51;2.20;;;1.83;;
66437;SDS011;54537;47.972;11.662;2022-07-05T12:24:20;2.78;;;1.63;;
66437;SDS011;54537;47.972;11.662;2022-07-05T12:26:46;4.25;;;1.90;;
66437;SDS011;54537;47.972;11.662;2022-07-05T12:29:14;3.70;;;1.85;;
66437;SDS011;54537;47.972;11.662;2022-07-05T12:31:56;6.47;;;1.90;;
66437;SDS011;54537;47.972;11.662;2022-07-05T12:34:24;4.65;;;2.03;;
66437;SDS011;54537;47.972;11.662;2022-07-05T12:36:50;3.70;;;1.92;;
66437;SDS011;54537;47.972;11.662;2022-07-05T12:39:17;3.25;;;1.80;;
66437;SDS011;54537;47.972;11.662;2022-07-05T12:41:45;3.55;;;1.92;;
66437;SDS011;54537;47.972;11.662;2022-07-05T12:44:11;4.90;;;1.92;;
66437;SDS011;54537;47.972;11.662;2022-07-05T12:46:38;4.80;;;2.03;;
66437;SDS011;54537;47.972;11.662;2022-07-05T12:49:07;3.03;;;1.85;;
66437;SDS011;54537;47.972;11.662;2022-07-05T12:51:35;3.05;;;1.83;;
66437;SDS011;54537;47.972;11.662;2022-07-05T12:54:03;4.70;;;2.00;;
66437;SDS011;54537;47.972;11.662;2022-07-05T12:56:49;8.95;;;1.90;;
66437;SDS011;54537;47.972;11.662;2022-07-05T12:59:33;5.03;;;2.00;;
66437;SDS011;54537;47.972;11.662;2022-07-05T13:02:00;5.40;;;1.90;;
66437;SDS011;54537;47.972;11.662;2022-07-05T13:04:27;3.55;;;1.95;;
66437;SDS011;54537;47.972;11.662;2022-07-05T13:06:54;4.18;;;1.85;;
66437;SDS011;54537;47.972;11.662;2022-07-05T13:09:34;3.88;;;1.67;;
66437;SDS011;54537;47.972;11.662;2022-07-05T13:12:06;5.38;;;2.05;;
66437;SDS011;54537;47.972;11.662;2022-07-05T13:14:34;3.83;;;2.10;;
66437;SDS011;54537;47.972;11.662;2022-07-05T13:17:01;2.45;;;1.63;;
66437;SDS011;54537;47.972;11.662;2022-07-05T13:19:28;3.33;;;1.73;;
66437;SDS011;54537;47.972;11.662;2022-07-05T13:21:55;4.55;;;1.70;;
66437;SDS011;54537;47.972;11.662;2022-07-05T13:24:21;3.42;;;2.00;;
66437;SDS011;54537;47.972;11.662;2022-07-05T13:26:48;3.22;;;1.73;;
66437;SDS011;54537;47.972;11.662;2022-07-05T13:29:16;4.88;;;1.80;;
66437;SDS011;54537;47.972;11.662;2022-07-05T13:31:42;5.35;;;1.67;;
66437;SDS011;54537;47.972;11.662;2022-07-05T13:34:09;2.97;;;2.15;;
66437;SDS011;54537;47.972;11.662;2022-07-05T13:36:35;4.20;;;1.67;;
66437;SDS011;54537;47.972;11.662;2022-07-05T13:39:02;7.38;;;1.90;;
66437;SDS011;54537;47.972;11.662;2022-07-05T13:41:28;2.90;;;1.70;;
66437;SDS011;54537;47.972;11.662;2022-07-05T13:43:56;3.30;;;1.77;;
66437;SDS011;54537;47.972;11.662;2022-07-05T13:46:24;3.65;;;1.70;;
66437;SDS011;54537;47.972;11.662;2022-07-05T13:48:51;4.97;;;1.70;;
66437;SDS011;54537;47.972;11.662;2022-07-05T13:51:17;4.47;;;2.15;;
66437;SDS011;54537;47.972;11.662;2022-07-05T13:53:44;3.03;;;1.70;;
66437;SDS011;54537;47.972;11.662;2022-07-05T13:56:11;4.15;;;1.88;;
66437;SDS011;54537;47.972;11.662;2022-07-05T13:58:37;3.97;;;1.77;;
66437;SDS011;54537;47.972;11.662;2022-07-05T14:01:04;3.85;;;1.70;;
66437;SDS011;54537;47.972;11.662;2022-07-05T14:03:32;5.95;;;1.90;;
66437;SDS011;54537;47.972;11.662;2022-07-05T14:05:59;3.83;;;1.55;;
66437;SDS011;54537;47.972;11.662;2022-07-05T14:08:25;4.18;;;1.77;;
66437;SDS011;54537;47.972;11.662;2022-07-05T14:10:52;3.28;;;1.67;;
66437;SDS011;54537;47.972;11.662;2022-07-05T14:13:21;3.42;;;1.63;;
66437;SDS011;54537;47.972;11.662;2022-07-05T14:15:48;4.68;;;2.10;;
66437;SDS011;54537;47.972;11.662;2022-07-05T14:18:16;4.22;;;1.83;;
66437;SDS011;54537;47.972;11.662;2022-07-05T14:20:44;3.10;;;1.80;;
66437;SDS011;54537;47.972;11.662;2022-07-05T14:23:12;3.70;;;1.70;;
66437;SDS011;54537;47.972;11.662;2022-07-05T14:25:40;4.95;;;1.83;;
66437;SDS011;54537;47.972;11.662;2022-07-05T14:28:07;4.70;;;1.70;;
66437;SDS011;54537;47.972;11.662;2022-07-05T14:30:34;5.28;;;1.98;;
66437;SDS011;54537;47.972;11.662;2022-07-05T14:33:01;3.28;;;1.70;;
66437;SDS011;54537;47.972;11.662;2022-07-05T14:35:28;3.33;;;1.85;;
66437;SDS011;54537;47.972;11.662;2022-07-05T14:37:57;5.45;;;1.70;;
66437;SDS011;54537;47.972;11.662;2022-07-05T14:40:24;3.85;;;1.70;;
66437;SDS011;54537;47.972;11.662;2022-07-05T14:42:51;5.65;;;1.90;;
66437;SDS011;54537;47.972;11.662;2022-07-05T14:45:18;3.55;;;1.60;;